createdAt,value
2019-01-10T00:00:53.551Z,10.27
2019-01-10T00:03:23.264Z,7.87
2019-01-10T00:05:52.824Z,7.27
2019-01-10T00:08:22.374Z,5.87
2019-01-10T00:10:51.943Z,10.33
2019-01-10T00:13:21.490Z,5.43
2019-01-10T00:15:51.035Z,6.67
2019-01-10T00:18:20.580Z,6.97
2019-01-10T00:20:50.223Z,8.53
2019-01-10T00:23:19.771Z,8.57
2019-01-10T00:25:49.384Z,7.33
2019-01-10T00:28:18.970Z,9.30
2019-01-10T00:30:48.480Z,9.50
2019-01-10T00:33:18.013Z,8.87
2019-01-10T00:35:47.568Z,6.70
2019-01-10T00:38:18.437Z,6.63
2019-01-10T00:40:48.554Z,8.07
2019-01-10T00:43:18.083Z,5.20
2019-01-10T00:45:47.656Z,9.23
2019-01-10T00:48:17.214Z,9.63
2019-01-10T00:50:46.753Z,8.30
2019-01-10T00:53:16.318Z,6.63
2019-01-10T00:55:45.835Z,4.10
2019-01-10T00:58:15.402Z,7.17
2019-01-10T01:00:44.969Z,10.00
2019-01-10T01:03:14.803Z,6.83
2019-01-10T01:05:45.875Z,4.07
2019-01-10T01:08:15.437Z,10.60
2019-01-10T01:10:45.058Z,7.63
2019-01-10T01:13:14.628Z,7.73
2019-01-10T01:15:44.155Z,9.13
2019-01-10T01:18:13.721Z,10.13
2019-01-10T01:20:43.510Z,8.07
2019-01-10T01:23:13.050Z,6.33
2019-01-10T01:25:43.688Z,3.83
2019-01-10T01:28:13.318Z,5.53
2019-01-10T01:30:42.848Z,7.97
2019-01-10T01:33:12.400Z,6.53
2019-01-10T01:35:41.963Z,6.60
2019-01-10T01:38:11.497Z,6.07
2019-01-10T01:40:41.031Z,11.30
2019-01-10T01:43:10.657Z,8.57
2019-01-10T01:45:40.254Z,6.03
2019-01-10T01:48:09.800Z,9.47
2019-01-10T01:50:39.440Z,9.27
2019-01-10T01:53:08.974Z,7.07
2019-01-10T01:55:38.542Z,7.10
2019-01-10T01:58:08.096Z,8.90
2019-01-10T02:00:38.108Z,7.83
2019-01-10T02:03:07.963Z,6.00
2019-01-10T02:05:37.553Z,10.00
2019-01-10T02:08:07.115Z,4.90
2019-01-10T02:10:36.735Z,12.87
2019-01-10T02:13:06.301Z,6.73
2019-01-10T02:15:35.863Z,8.60
2019-01-10T02:18:05.429Z,6.10
2019-01-10T02:20:35.020Z,6.30
2019-01-10T02:23:04.533Z,7.10
2019-01-10T02:25:34.102Z,5.27
2019-01-10T02:28:03.659Z,7.50
2019-01-10T02:30:41.818Z,4.87
2019-01-10T02:33:04.903Z,10.07
2019-01-10T02:35:34.811Z,6.40
2019-01-10T02:38:04.362Z,6.40
2019-01-10T02:40:33.903Z,9.57
2019-01-10T02:43:03.441Z,5.97
2019-01-10T02:45:33.246Z,7.80
2019-01-10T02:48:03.047Z,9.97
2019-01-10T02:50:32.794Z,8.80
2019-01-10T02:53:02.317Z,7.90
2019-01-10T02:55:31.857Z,5.43
2019-01-10T02:58:01.400Z,10.20
2019-01-10T03:00:31.583Z,8.10
2019-01-10T03:03:01.227Z,8.87
2019-01-10T03:05:30.935Z,6.43
2019-01-10T03:08:00.482Z,7.30
2019-01-10T03:10:30.190Z,7.00
2019-01-10T03:12:59.727Z,6.63
2019-01-10T03:15:29.266Z,9.87
2019-01-10T03:17:58.827Z,7.73
2019-01-10T03:20:28.360Z,7.87
2019-01-10T03:22:57.903Z,9.40
2019-01-10T03:25:27.440Z,7.30
2019-01-10T03:27:57.003Z,6.37
2019-01-10T03:30:26.883Z,6.67
2019-01-10T03:32:56.466Z,9.63
2019-01-10T03:35:26.991Z,7.73
2019-01-10T03:37:56.543Z,9.33
2019-01-10T03:40:26.100Z,7.33
2019-01-10T03:42:55.647Z,7.97
2019-01-10T03:45:25.349Z,6.57
2019-01-10T03:47:55.192Z,7.83
2019-01-10T03:50:24.687Z,6.77
2019-01-10T03:52:54.250Z,7.77
2019-01-10T03:55:23.783Z,8.53
2019-01-10T03:57:53.339Z,7.10
2019-01-10T04:00:23.777Z,9.73
2019-01-10T04:02:53.340Z,11.00
2019-01-10T04:05:22.894Z,7.70
2019-01-10T04:07:52.559Z,5.53
2019-01-10T04:10:22.114Z,7.87
2019-01-10T04:12:51.781Z,8.07
2019-01-10T04:15:21.269Z,8.37
2019-01-10T04:17:50.854Z,7.73
2019-01-10T04:20:20.468Z,8.80
2019-01-10T04:22:50.025Z,5.33
2019-01-10T04:25:19.569Z,8.87
2019-01-10T04:27:49.135Z,10.80
2019-01-10T04:30:19.880Z,7.03
2019-01-10T04:32:49.422Z,6.43
2019-01-10T04:35:19.052Z,10.37
2019-01-10T04:37:48.590Z,8.93
2019-01-10T04:40:19.695Z,7.27
2019-01-10T04:42:49.231Z,10.47
2019-01-10T04:45:18.838Z,6.57
2019-01-10T04:48:37.559Z,8.07
2019-01-10T04:51:07.109Z,9.17
2019-01-10T04:53:36.631Z,5.03
2019-01-10T04:56:06.257Z,9.10
2019-01-10T04:58:35.800Z,9.23
2019-01-10T05:01:05.421Z,4.47
2019-01-10T05:03:34.975Z,8.20
2019-01-10T05:06:04.791Z,5.93
2019-01-10T05:08:34.331Z,2.77
2019-01-10T05:11:03.865Z,10.53
2019-01-10T05:13:33.409Z,6.93
2019-01-10T05:16:02.962Z,9.67
2019-01-10T05:18:32.528Z,8.20
2019-01-10T05:21:02.061Z,6.00
2019-01-10T05:23:31.638Z,5.97
2019-01-10T05:26:01.188Z,6.27
2019-01-10T05:28:30.725Z,8.13
2019-01-10T05:31:00.260Z,6.63
2019-01-10T05:33:29.809Z,7.03
2019-01-10T05:35:59.557Z,5.10
2019-01-10T05:38:29.195Z,5.70
2019-01-10T05:40:58.764Z,7.27
2019-01-10T05:43:28.306Z,8.20
2019-01-10T05:45:57.872Z,4.50
2019-01-10T05:48:27.406Z,6.67
2019-01-10T05:50:57.274Z,10.27
2019-01-10T05:53:26.830Z,6.23
2019-01-10T05:55:56.354Z,5.40
2019-01-10T05:58:25.893Z,7.73
2019-01-10T06:00:55.436Z,5.83
2019-01-10T06:03:24.978Z,9.40
2019-01-10T06:05:54.506Z,9.60
2019-01-10T06:08:24.058Z,7.83
2019-01-10T06:10:53.581Z,6.23
2019-01-10T06:13:23.141Z,7.23
2019-01-10T06:15:52.667Z,6.27
2019-01-10T06:18:22.195Z,8.83
2019-01-10T06:20:51.736Z,7.63
2019-01-10T06:23:21.290Z,8.90
2019-01-10T06:25:50.813Z,11.07
2019-01-10T06:28:20.376Z,10.00
2019-01-10T06:30:49.925Z,7.03
2019-01-10T06:33:19.447Z,11.00
2019-01-10T06:35:51.295Z,10.17
2019-01-10T06:38:20.835Z,6.00
2019-01-10T06:40:50.394Z,8.73
2019-01-10T06:43:20.183Z,9.13
2019-01-10T06:45:50.868Z,8.97
2019-01-10T06:48:20.416Z,11.33
2019-01-10T06:50:49.939Z,8.40
2019-01-10T06:53:19.477Z,12.83
2019-01-10T06:55:49.049Z,6.77
2019-01-10T06:58:18.566Z,10.07
2019-01-10T07:00:48.111Z,12.07
2019-01-10T07:03:17.663Z,10.83
2019-01-10T07:05:47.269Z,9.03
2019-01-10T07:08:16.816Z,9.37
2019-01-10T07:10:46.592Z,10.73
2019-01-10T07:13:16.172Z,8.07
2019-01-10T07:15:45.931Z,7.20
2019-01-10T07:18:15.421Z,7.53
2019-01-10T07:20:44.972Z,9.50
2019-01-10T07:23:14.499Z,10.60
2019-01-10T07:25:44.125Z,10.20
2019-01-10T07:28:25.471Z,11.70
2019-01-10T07:30:56.027Z,7.27
2019-01-10T07:33:25.618Z,9.67
2019-01-10T07:35:58.181Z,9.13
2019-01-10T07:38:27.672Z,7.40
2019-01-10T07:40:57.344Z,10.00
2019-01-10T07:43:27.158Z,8.47
2019-01-10T07:45:57.287Z,7.70
2019-01-10T07:48:27.020Z,7.40
2019-01-10T07:50:56.515Z,6.30
2019-01-10T07:53:26.318Z,6.43
2019-01-10T07:55:58.086Z,10.47
2019-01-10T07:58:27.618Z,7.00
2019-01-10T08:00:57.162Z,11.47
2019-01-10T08:03:26.723Z,7.93
2019-01-10T08:05:56.262Z,7.13
2019-01-10T08:08:25.985Z,7.83
2019-01-10T08:10:55.784Z,7.70
2019-01-10T08:13:25.316Z,9.73
2019-01-10T08:15:54.877Z,6.57
2019-01-10T08:18:24.420Z,7.00
2019-01-10T08:20:53.966Z,10.87
2019-01-10T08:23:23.504Z,6.37
2019-01-10T08:25:53.062Z,7.17
2019-01-10T08:28:22.599Z,11.77
2019-01-10T08:30:52.139Z,7.73
2019-01-10T08:33:21.690Z,7.37
2019-01-10T08:35:51.477Z,8.40
2019-01-10T08:38:21.041Z,7.90
2019-01-10T08:40:51.727Z,12.67
2019-01-10T08:43:21.287Z,9.67
2019-01-10T08:45:50.818Z,10.73
2019-01-10T08:48:23.420Z,10.53
2019-01-10T08:50:52.940Z,8.67
2019-01-10T08:53:22.467Z,5.97
2019-01-10T08:55:52.040Z,9.03
2019-01-10T08:58:21.565Z,10.73
2019-01-10T09:00:51.103Z,7.67
2019-01-10T09:03:20.660Z,6.30
2019-01-10T09:05:51.765Z,13.53
2019-01-10T09:08:21.312Z,8.17
2019-01-10T09:10:50.855Z,8.60
2019-01-10T09:13:20.387Z,9.57
2019-01-10T09:15:49.924Z,10.40
2019-01-10T09:18:19.455Z,8.63
2019-01-10T09:20:49.006Z,11.87
2019-01-10T09:23:18.593Z,10.70
2019-01-10T09:25:48.657Z,9.67
2019-01-10T09:28:18.178Z,12.67
2019-01-10T09:30:48.057Z,8.60
2019-01-10T09:33:17.605Z,10.27
2019-01-10T09:35:48.435Z,8.60
2019-01-10T09:38:17.951Z,10.07
2019-01-10T09:40:47.491Z,8.30
2019-01-10T09:43:17.026Z,11.97
2019-01-10T09:45:46.553Z,7.77
2019-01-10T09:48:16.141Z,11.87
2019-01-10T09:50:45.669Z,9.00
2019-01-10T09:53:15.248Z,11.73
2019-01-10T09:55:44.789Z,8.73
2019-01-10T09:58:14.665Z,9.27
2019-01-10T10:00:44.215Z,9.90
2019-01-10T10:03:13.733Z,9.60
2019-01-10T10:05:43.291Z,8.23
2019-01-10T10:08:12.835Z,7.10
2019-01-10T10:10:42.390Z,9.33
2019-01-10T10:13:11.935Z,11.40
2019-01-10T10:15:41.470Z,9.20
2019-01-10T10:18:10.998Z,10.00
2019-01-10T10:20:40.547Z,6.70
2019-01-10T10:23:10.153Z,9.63
2019-01-10T10:25:39.767Z,9.57
2019-01-10T10:28:09.345Z,10.53
2019-01-10T10:30:38.895Z,8.67
2019-01-10T10:33:08.439Z,7.30
2019-01-10T10:35:37.983Z,7.87
2019-01-10T10:38:07.510Z,7.50
2019-01-10T10:40:37.089Z,11.00
2019-01-10T10:43:06.629Z,12.57
2019-01-10T10:45:36.167Z,12.20
2019-01-10T10:48:07.075Z,8.00
2019-01-10T10:50:37.871Z,7.00
2019-01-10T10:53:08.666Z,9.47
2019-01-10T10:55:38.675Z,10.53
2019-01-10T10:58:08.882Z,9.27
2019-01-10T11:00:39.164Z,14.80
2019-01-10T11:03:09.028Z,9.93
2019-01-10T11:05:39.143Z,8.13
2019-01-10T11:08:08.685Z,10.17
2019-01-10T11:10:38.236Z,13.33
2019-01-10T11:13:07.853Z,11.97
2019-01-10T11:15:37.391Z,11.47
2019-01-10T11:18:07.064Z,7.63
2019-01-10T11:20:36.599Z,7.43
2019-01-10T11:23:10.790Z,11.53
2019-01-10T11:25:38.035Z,8.17
2019-01-10T11:28:07.636Z,11.60
2019-01-10T11:30:37.163Z,10.53
2019-01-10T11:33:06.762Z,11.37
2019-01-10T11:35:36.288Z,8.33
2019-01-10T11:38:05.835Z,11.70
2019-01-10T11:40:35.373Z,8.93
2019-01-10T11:43:04.965Z,15.37
2019-01-10T11:45:34.506Z,12.83
2019-01-10T11:48:04.033Z,17.97
2019-01-10T11:50:33.587Z,15.73
2019-01-10T11:53:03.118Z,7.17
2019-01-10T11:55:32.673Z,10.87
2019-01-10T11:58:02.193Z,8.57
2019-01-10T12:00:31.924Z,10.47
2019-01-10T12:03:01.472Z,9.07
2019-01-10T12:05:31.015Z,7.77
2019-01-10T12:08:01.308Z,9.87
2019-01-10T12:10:32.691Z,8.60
2019-01-10T12:13:02.616Z,11.90
2019-01-10T12:15:32.240Z,7.97
2019-01-10T12:18:01.787Z,10.70
2019-01-10T12:20:31.318Z,8.83
2019-01-10T12:23:00.870Z,16.70
2019-01-10T12:25:30.411Z,8.43
2019-01-10T12:27:59.953Z,10.83
2019-01-10T12:30:29.497Z,11.23
2019-01-10T12:32:59.030Z,9.77
2019-01-10T12:35:28.557Z,8.70
2019-01-10T12:37:58.081Z,9.57
2019-01-10T12:40:27.651Z,10.70
2019-01-10T12:42:57.185Z,11.57
2019-01-10T12:45:26.825Z,10.83
2019-01-10T12:47:56.355Z,10.10
2019-01-10T12:50:29.136Z,11.23
2019-01-10T12:52:58.855Z,8.47
2019-01-10T12:55:28.400Z,9.13
2019-01-10T12:57:57.963Z,6.50
2019-01-10T13:00:27.538Z,11.03
2019-01-10T13:02:57.667Z,7.50
2019-01-10T13:05:27.334Z,14.63
2019-01-10T13:08:03.321Z,12.43
2019-01-10T13:10:28.158Z,12.60
2019-01-10T13:12:57.741Z,11.23
2019-01-10T13:15:27.611Z,8.57
2019-01-10T13:17:57.147Z,8.57
2019-01-10T13:20:26.762Z,7.83
2019-01-10T13:22:56.312Z,9.20
2019-01-10T13:25:25.935Z,9.30
2019-01-10T13:27:57.196Z,9.90
2019-01-10T13:30:30.175Z,9.43
2019-01-10T13:33:00.389Z,7.53
2019-01-10T13:35:29.888Z,8.97
2019-01-10T13:37:59.543Z,10.53
2019-01-10T13:40:29.161Z,12.57
2019-01-10T13:42:58.696Z,10.00
2019-01-10T13:45:28.373Z,12.73
2019-01-10T13:48:00.122Z,6.87
2019-01-10T13:50:29.940Z,7.50
2019-01-10T13:52:59.491Z,9.77
2019-01-10T13:55:29.161Z,10.37
2019-01-10T13:57:58.870Z,8.00
2019-01-10T14:00:35.378Z,8.47
2019-01-10T14:03:01.599Z,10.87
2019-01-10T14:05:31.283Z,8.97
2019-01-10T14:08:00.813Z,10.17
2019-01-10T14:10:30.503Z,7.33
2019-01-10T14:13:00.025Z,8.93
2019-01-10T14:15:31.428Z,7.80
2019-01-10T14:18:01.065Z,10.20
2019-01-10T14:20:30.709Z,9.40
2019-01-10T14:23:00.379Z,8.37
2019-01-10T14:25:29.997Z,9.37
2019-01-10T14:27:59.982Z,6.60
2019-01-10T14:30:33.414Z,8.23
2019-01-10T14:33:03.020Z,8.47
2019-01-10T14:35:32.633Z,7.23
2019-01-10T14:38:02.238Z,11.37
2019-01-10T14:40:31.947Z,7.50
2019-01-10T14:43:01.483Z,9.50
2019-01-10T14:45:31.025Z,11.47
2019-01-10T14:48:01.941Z,8.63
2019-01-10T14:50:31.688Z,10.57
2019-01-10T14:53:01.203Z,9.17
2019-01-10T14:55:30.834Z,11.63
2019-01-10T14:58:00.453Z,7.97
2019-01-10T15:00:30.132Z,13.40
2019-01-10T15:02:59.749Z,8.47
2019-01-10T15:05:34.372Z,8.70
2019-01-10T15:08:00.671Z,7.93
2019-01-10T15:10:30.274Z,6.90
2019-01-10T15:12:59.890Z,8.50
2019-01-10T15:15:29.419Z,7.03
2019-01-10T15:18:01.835Z,8.63
2019-01-10T15:20:34.300Z,7.30
2019-01-10T15:23:03.858Z,8.23
2019-01-10T15:25:33.396Z,7.57
2019-01-10T15:28:02.975Z,5.90
2019-01-10T15:30:32.508Z,7.33
2019-01-10T15:33:02.059Z,9.83
2019-01-10T15:35:32.040Z,9.83
2019-01-10T15:38:01.582Z,13.53
2019-01-10T15:40:32.237Z,9.87
2019-01-10T15:43:02.000Z,10.13
2019-01-10T15:45:31.599Z,8.77
2019-01-10T15:48:01.205Z,7.90
2019-01-10T15:50:32.623Z,10.70
2019-01-10T15:53:02.189Z,10.37
2019-01-10T15:55:32.899Z,8.50
2019-01-10T15:58:03.031Z,8.67
2019-01-10T16:00:33.083Z,9.67
2019-01-10T16:03:04.315Z,9.00
2019-01-10T16:05:33.833Z,8.37
2019-01-10T16:08:03.457Z,10.43
2019-01-10T16:10:32.992Z,12.67
2019-01-10T16:13:02.535Z,11.57
2019-01-10T16:15:32.080Z,14.30
2019-01-10T16:18:01.635Z,16.13
2019-01-10T16:20:31.180Z,10.70
2019-01-10T16:23:00.721Z,8.07
2019-01-10T16:25:30.269Z,11.57
2019-01-10T16:27:59.868Z,10.10
2019-01-10T16:30:29.743Z,11.63
2019-01-10T16:32:59.372Z,13.27
2019-01-10T16:35:28.904Z,12.50
2019-01-10T16:37:58.455Z,11.97
2019-01-10T16:40:27.993Z,11.10
2019-01-10T16:42:57.560Z,14.83
2019-01-10T16:45:28.567Z,15.83
2019-01-10T16:47:58.089Z,13.83
2019-01-10T16:50:27.681Z,13.80
2019-01-10T16:52:57.304Z,10.33
2019-01-10T16:55:26.848Z,9.97
2019-01-10T16:57:57.903Z,14.10
2019-01-10T17:00:32.767Z,14.77
2019-01-10T17:03:02.286Z,11.43
2019-01-10T17:05:31.972Z,11.77
2019-01-10T17:08:01.520Z,14.70
2019-01-10T17:10:31.078Z,14.33
2019-01-10T17:13:00.613Z,10.60
2019-01-10T17:15:30.147Z,10.70
2019-01-10T17:17:59.713Z,10.53
2019-01-10T17:20:29.250Z,12.27
2019-01-10T17:22:58.846Z,10.33
2019-01-10T17:25:28.483Z,9.47
2019-01-10T17:27:58.000Z,13.57
2019-01-10T17:30:29.291Z,16.23
2019-01-10T17:32:59.013Z,15.37
2019-01-10T17:35:31.071Z,11.93
2019-01-10T17:38:00.677Z,15.60
2019-01-10T17:40:30.331Z,11.10
2019-01-10T17:43:00.200Z,12.73
2019-01-10T17:45:32.517Z,11.97
2019-01-10T17:48:02.315Z,16.37
2019-01-10T17:50:31.920Z,13.57
2019-01-10T17:53:01.548Z,13.77
2019-01-10T17:55:31.929Z,16.97
2019-01-10T17:58:02.825Z,16.87
2019-01-10T18:00:32.353Z,14.53
2019-01-10T18:03:01.879Z,10.23
2019-01-10T18:05:32.508Z,11.33
2019-01-10T18:08:02.010Z,11.63
2019-01-10T18:10:31.547Z,11.90
2019-01-10T18:13:01.083Z,11.57
2019-01-10T18:15:31.624Z,12.67
2019-01-10T18:18:01.251Z,17.97
2019-01-10T18:20:36.879Z,11.17
2019-01-10T18:23:06.755Z,8.03
2019-01-10T18:25:36.290Z,10.07
2019-01-10T18:28:06.395Z,11.27
2019-01-10T18:30:35.926Z,9.07
2019-01-10T18:33:06.194Z,10.47
2019-01-10T18:35:36.422Z,11.77
2019-01-10T18:38:06.105Z,10.47
2019-01-10T18:40:35.659Z,13.73
2019-01-10T18:43:05.403Z,14.00
2019-01-10T18:45:35.094Z,13.83
2019-01-10T18:48:04.846Z,13.97
2019-01-10T18:50:34.408Z,15.43
2019-01-10T18:53:04.031Z,10.37
2019-01-10T18:55:33.563Z,11.63
2019-01-10T18:58:03.110Z,14.07
2019-01-10T19:00:32.709Z,11.07
2019-01-10T19:03:02.313Z,14.63
2019-01-10T19:05:32.150Z,11.10
2019-01-10T19:08:01.699Z,12.43
2019-01-10T19:10:31.272Z,12.60
2019-01-10T19:13:00.800Z,13.43
2019-01-10T19:15:30.438Z,18.03
2019-01-10T19:18:03.555Z,17.97
2019-01-10T19:20:31.272Z,13.67
2019-01-10T19:23:00.905Z,15.50
2019-01-10T19:25:30.447Z,14.37
2019-01-10T19:28:00.030Z,13.23
2019-01-10T19:30:30.912Z,15.47
2019-01-10T19:33:01.328Z,13.63
2019-01-10T19:35:31.034Z,16.13
2019-01-10T19:38:01.565Z,16.50
2019-01-10T19:40:31.170Z,12.10
2019-01-10T19:43:00.701Z,14.43
2019-01-10T19:45:30.272Z,10.27
2019-01-10T19:47:59.834Z,15.10
2019-01-10T19:50:29.374Z,16.63
2019-01-10T19:52:59.225Z,16.80
2019-01-10T19:55:28.853Z,13.90
2019-01-10T19:57:58.733Z,22.73
2019-01-10T20:00:35.217Z,13.87
2019-01-10T20:03:05.037Z,10.13
2019-01-10T20:05:34.581Z,12.13
2019-01-10T20:08:04.254Z,12.87
2019-01-10T20:10:33.809Z,10.50
2019-01-10T20:13:03.400Z,9.40
2019-01-10T20:15:32.960Z,14.63
2019-01-10T20:18:02.508Z,14.63
2019-01-10T20:20:38.020Z,12.23
2019-01-10T20:23:09.691Z,11.83
2019-01-10T20:25:39.969Z,9.97
2019-01-10T20:28:10.083Z,10.20
2019-01-10T20:30:42.382Z,11.13
2019-01-10T20:33:13.152Z,9.93
2019-01-10T20:35:43.759Z,12.77
2019-01-10T20:38:14.558Z,13.70
2019-01-10T20:40:44.893Z,10.80
2019-01-10T20:43:15.762Z,10.70
2019-01-10T20:45:46.607Z,9.47
2019-01-10T20:48:22.424Z,9.53
2019-01-10T20:50:49.770Z,11.27
2019-01-10T20:53:20.672Z,11.27
2019-01-10T20:55:51.319Z,15.13
2019-01-10T20:58:22.668Z,13.57
2019-01-10T21:00:54.355Z,13.83
2019-01-10T21:03:24.824Z,11.23
2019-01-10T21:05:55.470Z,12.10
2019-01-10T21:08:27.834Z,15.67
2019-01-10T21:11:02.265Z,11.53
2019-01-10T21:13:32.860Z,14.20
2019-01-10T21:16:03.961Z,12.73
2019-01-10T21:18:34.734Z,15.03
2019-01-10T21:21:05.423Z,13.60
2019-01-10T21:23:35.879Z,15.13
2019-01-10T21:26:06.706Z,13.17
2019-01-10T21:28:37.463Z,13.10
2019-01-10T21:31:09.002Z,12.27
2019-01-10T21:33:39.646Z,12.30
2019-01-10T21:36:10.459Z,12.17
2019-01-10T21:38:41.272Z,12.90
2019-01-10T21:41:13.033Z,11.23
2019-01-10T21:43:43.712Z,16.40
2019-01-10T21:46:17.212Z,13.00
2019-01-10T21:48:47.806Z,14.67
2019-01-10T21:51:18.010Z,12.30
2019-01-10T21:53:49.664Z,14.63
2019-01-10T21:56:20.035Z,13.47
2019-01-10T21:58:50.010Z,15.77
2019-01-10T22:01:23.535Z,12.47
2019-01-10T22:03:53.608Z,14.57
2019-01-10T22:06:23.280Z,11.70
2019-01-10T22:08:53.429Z,12.80
2019-01-10T22:11:24.762Z,12.97
2019-01-10T22:13:55.072Z,11.63
2019-01-10T22:16:25.640Z,12.37
2019-01-10T22:18:56.057Z,13.77
2019-01-10T22:21:25.683Z,13.30
2019-01-10T22:23:55.581Z,12.97
2019-01-10T22:26:25.554Z,14.67
2019-01-10T22:28:55.115Z,13.23
2019-01-10T22:31:24.886Z,16.33
2019-01-10T22:33:55.996Z,16.93
2019-01-10T22:36:25.574Z,13.10
2019-01-10T22:38:55.114Z,14.70
2019-01-10T22:41:24.662Z,15.70
2019-01-10T22:43:54.211Z,13.17
2019-01-10T22:46:23.770Z,15.37
2019-01-10T22:48:53.444Z,18.30
2019-01-10T22:51:22.969Z,11.67
2019-01-10T22:53:52.688Z,15.77
2019-01-10T22:56:22.243Z,10.37
2019-01-10T22:58:51.758Z,12.23
2019-01-10T23:01:25.912Z,14.43
2019-01-10T23:03:55.498Z,12.53
2019-01-10T23:06:25.126Z,13.63
2019-01-10T23:08:54.661Z,13.97
2019-01-10T23:11:24.559Z,10.70
2019-01-10T23:13:56.616Z,14.83
2019-01-10T23:16:26.146Z,13.73
2019-01-10T23:18:55.741Z,17.27
2019-01-10T23:21:25.428Z,12.47
2019-01-10T23:24:00.920Z,14.00
2019-01-10T23:26:30.451Z,14.03
2019-01-10T23:28:59.998Z,15.73
2019-01-10T23:31:29.530Z,16.67
2019-01-10T23:34:03.856Z,16.47
2019-01-10T23:36:33.512Z,15.43
2019-01-10T23:39:15.038Z,13.27
2019-01-10T23:41:44.583Z,17.47
2019-01-10T23:44:14.211Z,13.67
2019-01-10T23:46:43.887Z,16.17
2019-01-10T23:49:13.423Z,18.40
2019-01-10T23:51:43.190Z,15.30
2019-01-10T23:54:12.859Z,14.63
2019-01-10T23:56:42.473Z,18.70
2019-01-10T23:59:12.008Z,16.47
